createdAt,value
2023-03-28T00:01:08.038Z,57.60
2023-03-28T00:03:39.190Z,57.60
2023-03-28T00:06:11.049Z,57.60
2023-03-28T00:08:40.585Z,57.60
2023-03-28T00:11:11.367Z,57.70
2023-03-28T00:13:41.004Z,57.90
2023-03-28T00:16:12.858Z,58.00
2023-03-28T00:18:43.082Z,58.20
2023-03-28T00:21:23.333Z,58.30
2023-03-28T00:23:53.311Z,58.30
2023-03-28T00:26:22.622Z,58.30
2023-03-28T00:28:52.887Z,58.50
2023-03-28T00:31:21.190Z,58.60
2023-03-28T00:33:50.054Z,58.80
2023-03-28T00:36:22.891Z,58.90
2023-03-28T00:38:52.229Z,59.60
2023-03-28T00:41:21.794Z,59.10
2023-03-28T00:43:53.086Z,59.30
2023-03-28T00:46:26.042Z,59.40
2023-03-28T00:49:02.476Z,59.50
2023-03-28T00:51:35.016Z,59.60
2023-03-28T00:54:05.758Z,59.60
2023-03-28T00:56:37.940Z,59.60
2023-03-28T00:59:10.863Z,59.90
2023-03-28T01:01:39.561Z,59.90
2023-03-28T01:04:10.353Z,59.90
2023-03-28T01:06:46.335Z,60.00
2023-03-28T01:09:17.420Z,60.20
2023-03-28T01:11:47.151Z,60.20
2023-03-28T01:14:20.559Z,60.30
2023-03-28T01:16:49.346Z,60.30
2023-03-28T01:19:26.574Z,60.30
2023-03-28T01:22:17.136Z,60.50
2023-03-28T01:25:31.686Z,60.50
2023-03-28T01:28:05.434Z,60.60
2023-03-28T01:31:04.681Z,60.60
2023-03-28T01:34:09.339Z,61.30
2023-03-28T01:37:01.536Z,60.70
2023-03-28T01:39:41.441Z,60.70
2023-03-28T01:42:15.966Z,60.80
2023-03-28T01:44:49.837Z,60.80
2023-03-28T01:47:24.997Z,60.80
2023-03-28T01:50:02.465Z,60.90
2023-03-28T01:52:40.002Z,60.90
2023-03-28T01:55:13.824Z,60.90
2023-03-28T01:57:49.905Z,61.00
2023-03-28T02:00:22.676Z,61.00
2023-03-28T02:02:56.886Z,61.10
2023-03-28T02:05:28.057Z,61.10
2023-03-28T02:07:59.024Z,61.10
2023-03-28T02:10:28.844Z,61.20
2023-03-28T02:13:00.278Z,61.10
2023-03-28T02:15:30.907Z,61.10
2023-03-28T02:18:02.820Z,61.10
2023-03-28T02:20:33.535Z,61.20
2023-03-28T02:23:07.719Z,61.30
2023-03-28T02:25:36.513Z,61.30
2023-03-28T02:28:08.985Z,61.20
2023-03-28T02:30:37.327Z,61.30
2023-03-28T02:33:08.582Z,61.50
2023-03-28T02:35:48.103Z,61.70
2023-03-28T02:38:25.381Z,61.90
2023-03-28T02:41:00.326Z,62.00
2023-03-28T02:43:51.760Z,61.90
2023-03-28T02:46:27.442Z,61.80
2023-03-28T02:49:35.116Z,61.80
2023-03-28T02:52:17.027Z,62.20
2023-03-28T02:54:53.837Z,62.10
2023-03-28T02:57:31.423Z,62.20
2023-03-28T03:00:12.370Z,62.40
2023-03-28T03:02:43.556Z,62.40
2023-03-28T03:05:13.804Z,62.50
2023-03-28T03:07:42.535Z,62.60
2023-03-28T03:10:14.412Z,62.60
2023-03-28T03:12:42.840Z,62.70
2023-03-28T03:15:12.018Z,62.80
2023-03-28T03:17:40.219Z,62.90
2023-03-28T03:20:09.362Z,63.00
2023-03-28T03:22:37.658Z,63.10
2023-03-28T03:25:08.156Z,63.10
2023-03-28T03:27:39.374Z,63.10
2023-03-28T03:30:10.024Z,63.20
2023-03-28T03:32:39.275Z,63.30
2023-03-28T03:35:08.239Z,63.40
2023-03-28T03:37:36.464Z,64.10
2023-03-28T03:40:05.696Z,63.50
2023-03-28T03:42:33.952Z,63.60
2023-03-28T03:45:04.197Z,63.50
2023-03-28T03:47:32.404Z,63.60
2023-03-28T03:50:00.594Z,63.60
2023-03-28T03:52:28.815Z,63.70
2023-03-28T03:54:57.007Z,63.70
2023-03-28T03:57:25.234Z,63.80
2023-03-28T03:59:53.872Z,63.80
2023-03-28T04:02:23.487Z,63.90
2023-03-28T04:04:53.514Z,63.90
2023-03-28T04:07:21.688Z,63.90
2023-03-28T04:09:51.342Z,64.00
2023-03-28T04:12:19.471Z,64.00
2023-03-28T04:14:47.903Z,64.00
2023-03-28T04:17:16.159Z,64.00
2023-03-28T04:19:45.860Z,64.00
2023-03-28T04:22:14.092Z,64.10
2023-03-28T04:24:44.649Z,64.10
2023-03-28T04:27:13.630Z,64.20
2023-03-28T04:29:41.841Z,64.20
2023-03-28T04:32:12.754Z,64.20
2023-03-28T04:34:40.929Z,64.10
2023-03-28T04:37:10.572Z,64.20
2023-03-28T04:39:41.600Z,64.20
2023-03-28T04:42:10.231Z,64.30
2023-03-28T04:44:38.448Z,64.40
2023-03-28T04:47:08.662Z,64.40
2023-03-28T04:49:37.382Z,64.30
2023-03-28T04:52:06.257Z,64.30
2023-03-28T04:54:35.850Z,64.40
2023-03-28T04:57:04.745Z,64.50
2023-03-28T04:59:32.998Z,64.50
2023-03-28T05:02:01.218Z,64.60
2023-03-28T05:04:30.013Z,64.60
2023-03-28T05:06:58.607Z,64.50
2023-03-28T05:09:27.001Z,64.50
2023-03-28T05:11:56.540Z,64.60
2023-03-28T05:14:24.656Z,64.70
2023-03-28T05:16:52.863Z,64.70
2023-03-28T05:19:22.706Z,64.70
2023-03-28T05:21:50.858Z,64.60
2023-03-28T05:24:19.224Z,64.70
2023-03-28T05:26:47.393Z,64.70
2023-03-28T05:29:17.531Z,64.70
2023-03-28T05:31:46.509Z,64.80
2023-03-28T05:34:15.933Z,64.80
2023-03-28T05:36:44.619Z,64.80
2023-03-28T05:39:12.872Z,64.80
2023-03-28T05:41:41.210Z,64.90
2023-03-28T05:44:09.394Z,65.10
2023-03-28T05:46:38.992Z,65.10
2023-03-28T05:49:07.369Z,65.10
2023-03-28T05:51:35.532Z,65.10
2023-03-28T05:54:04.273Z,64.90
2023-03-28T05:56:35.692Z,64.90
2023-03-28T05:59:04.329Z,64.80
2023-03-28T06:01:33.958Z,64.80
2023-03-28T06:04:03.635Z,65.00
2023-03-28T06:06:33.112Z,65.00
2023-03-28T06:09:01.663Z,64.90
2023-03-28T06:11:29.890Z,64.80
2023-03-28T06:13:58.088Z,64.80
2023-03-28T06:16:30.117Z,65.00
2023-03-28T06:19:14.508Z,64.90
2023-03-28T06:21:47.544Z,64.90
2023-03-28T06:24:16.041Z,64.90
2023-03-28T06:26:44.846Z,64.80
2023-03-28T06:29:13.254Z,64.90
2023-03-28T06:31:41.510Z,64.90
2023-03-28T06:34:10.269Z,64.80
2023-03-28T06:36:38.505Z,64.70
2023-03-28T06:39:08.301Z,64.80
2023-03-28T06:41:36.814Z,64.80
2023-03-28T06:44:05.452Z,64.80
2023-03-28T06:46:34.211Z,64.70
2023-03-28T06:49:02.770Z,64.70
2023-03-28T06:51:31.008Z,64.60
2023-03-28T06:53:59.205Z,64.60
2023-03-28T06:56:29.635Z,64.50
2023-03-28T06:58:57.866Z,64.40
2023-03-28T07:01:26.214Z,64.20
2023-03-28T07:03:55.446Z,64.30
2023-03-28T07:06:23.850Z,64.20
2023-03-28T07:08:52.053Z,64.10
2023-03-28T07:11:20.534Z,64.00
2023-03-28T07:13:50.339Z,63.80
2023-03-28T07:16:18.990Z,63.80
2023-03-28T07:18:47.507Z,63.80
2023-03-28T07:21:17.693Z,63.70
2023-03-28T07:23:46.256Z,63.50
2023-03-28T07:26:16.806Z,63.30
2023-03-28T07:28:45.696Z,63.20
2023-03-28T07:31:15.754Z,63.00
2023-03-28T07:33:44.196Z,62.90
2023-03-28T07:36:16.268Z,62.70
2023-03-28T07:38:46.543Z,62.30
2023-03-28T07:41:16.333Z,62.20
2023-03-28T07:43:44.615Z,62.00
2023-03-28T07:46:16.444Z,61.90
2023-03-28T07:48:46.340Z,61.60
2023-03-28T07:51:15.098Z,61.50
2023-03-28T07:53:43.376Z,61.10
2023-03-28T07:56:14.737Z,61.00
2023-03-28T07:58:43.050Z,60.80
2023-03-28T08:01:13.731Z,60.70
2023-03-28T08:03:43.773Z,60.40
2023-03-28T08:06:30.993Z,60.70
2023-03-28T08:09:00.547Z,60.00
2023-03-28T08:11:28.937Z,59.80
2023-03-28T08:13:57.254Z,59.70
2023-03-28T08:16:25.579Z,59.90
2023-03-28T08:19:09.399Z,59.20
2023-03-28T08:21:39.464Z,59.20
2023-03-28T08:24:09.623Z,59.40
2023-03-28T08:26:38.162Z,59.20
2023-03-28T08:29:07.401Z,59.10
2023-03-28T08:31:35.638Z,58.90
2023-03-28T08:34:05.286Z,58.70
2023-03-28T08:36:33.484Z,58.50
2023-03-28T08:39:03.730Z,58.50
2023-03-28T08:41:46.918Z,58.20
2023-03-28T08:44:29.437Z,58.10
2023-03-28T08:47:03.085Z,57.90
2023-03-28T08:49:35.972Z,57.80
2023-03-28T08:52:06.589Z,57.70
2023-03-28T08:54:42.331Z,57.60
2023-03-28T08:57:17.888Z,57.30
2023-03-28T08:59:53.563Z,57.00
2023-03-28T09:02:23.415Z,56.90
2023-03-28T09:04:53.536Z,56.60
2023-03-28T09:07:35.056Z,56.40
2023-03-28T09:10:14.120Z,55.80
2023-03-28T09:12:56.113Z,55.60
2023-03-28T09:15:38.686Z,55.30
2023-03-28T09:18:24.604Z,55.00
2023-03-28T09:21:01.662Z,54.40
2023-03-28T09:23:52.845Z,53.80
2023-03-28T09:26:26.010Z,52.90
2023-03-28T09:29:01.168Z,52.90
2023-03-28T09:31:34.189Z,52.60
2023-03-28T09:34:03.738Z,52.40
2023-03-28T09:36:48.261Z,52.10
2023-03-28T09:39:26.928Z,51.60
2023-03-28T09:42:00.892Z,51.40
2023-03-28T09:44:40.829Z,51.10
2023-03-28T09:47:15.961Z,50.50
2023-03-28T09:49:44.212Z,50.10
2023-03-28T09:52:18.960Z,49.60
2023-03-28T09:54:47.992Z,49.60
2023-03-28T09:57:16.600Z,50.20
2023-03-28T09:59:44.920Z,49.40
2023-03-28T10:02:28.297Z,48.80
2023-03-28T10:04:56.989Z,48.10
2023-03-28T10:07:33.751Z,48.10
2023-03-28T10:10:17.236Z,47.60
2023-03-28T10:12:48.937Z,47.10
2023-03-28T10:15:42.110Z,46.80
2023-03-28T10:18:17.787Z,46.00
2023-03-28T10:20:46.371Z,46.30
2023-03-28T10:23:16.131Z,46.30
2023-03-28T10:25:46.095Z,46.40
2023-03-28T10:28:19.222Z,46.50
2023-03-28T10:30:53.870Z,46.20
2023-03-28T10:33:26.813Z,46.30
2023-03-28T10:35:59.675Z,46.00
2023-03-28T10:38:37.261Z,45.90
2023-03-28T10:41:08.508Z,45.50
2023-03-28T10:43:39.100Z,45.30
2023-03-28T10:46:13.879Z,45.00
2023-03-28T10:48:47.049Z,45.10
2023-03-28T10:51:19.443Z,45.20
2023-03-28T10:54:29.218Z,44.80
2023-03-28T10:56:59.628Z,44.20
2023-03-28T10:59:52.391Z,44.40
2023-03-28T11:02:41.725Z,43.60
2023-03-28T11:05:28.965Z,43.40
2023-03-28T11:08:03.186Z,43.10
2023-03-28T11:10:39.972Z,43.20
2023-03-28T11:13:20.705Z,42.90
2023-03-28T11:15:57.678Z,42.60
2023-03-28T11:18:48.311Z,42.50
2023-03-28T11:21:25.283Z,42.30
2023-03-28T11:24:15.885Z,42.30
2023-03-28T11:27:04.995Z,42.20
2023-03-28T11:29:45.983Z,42.30
2023-03-28T11:32:20.677Z,42.30
2023-03-28T11:35:01.606Z,41.20
2023-03-28T11:37:35.232Z,40.70
2023-03-28T11:40:12.023Z,41.50
2023-03-28T11:42:46.413Z,41.40
2023-03-28T11:45:37.473Z,41.10
2023-03-28T11:48:20.133Z,40.10
2023-03-28T11:50:56.136Z,40.30
2023-03-28T11:53:28.057Z,40.30
2023-03-28T11:56:03.637Z,40.50
2023-03-28T11:58:37.088Z,40.30
2023-03-28T12:01:09.983Z,39.90
2023-03-28T12:03:55.454Z,39.70
2023-03-28T12:06:31.424Z,39.40
2023-03-28T12:09:05.356Z,39.60
2023-03-28T12:11:40.197Z,39.50
2023-03-28T12:14:27.375Z,39.30
2023-03-28T12:16:56.697Z,39.30
2023-03-28T12:19:32.594Z,39.50
2023-03-28T12:22:05.008Z,39.30
2023-03-28T12:24:41.592Z,40.10
2023-03-28T12:27:18.025Z,39.50
2023-03-28T12:29:53.430Z,39.70
2023-03-28T12:32:34.412Z,39.90
2023-03-28T12:35:12.078Z,40.20
2023-03-28T12:37:48.664Z,40.10
2023-03-28T12:40:25.840Z,40.20
2023-03-28T12:42:57.149Z,40.20
2023-03-28T12:45:41.723Z,40.10
2023-03-28T12:48:14.605Z,39.70
2023-03-28T12:50:48.732Z,39.80
2023-03-28T12:53:17.783Z,39.60
2023-03-28T12:55:48.055Z,39.60
2023-03-28T12:58:28.290Z,39.60
2023-03-28T13:01:14.445Z,39.40
2023-03-28T13:03:53.718Z,39.30
2023-03-28T13:06:29.056Z,39.30
2023-03-28T13:09:13.646Z,39.30
2023-03-28T13:11:52.603Z,39.10
2023-03-28T13:14:37.969Z,39.10
2023-03-28T13:17:21.636Z,38.50
2023-03-28T13:19:53.807Z,38.40
2023-03-28T13:22:34.000Z,38.30
2023-03-28T13:25:27.057Z,37.80
2023-03-28T13:27:57.380Z,37.10
2023-03-28T13:30:28.661Z,37.50
2023-03-28T13:33:00.327Z,37.30
2023-03-28T13:35:46.617Z,37.30
2023-03-28T13:38:25.582Z,36.70
2023-03-28T13:40:55.879Z,36.90
2023-03-28T13:43:26.333Z,37.10
2023-03-28T13:45:58.699Z,37.20
2023-03-28T13:48:34.260Z,36.90
2023-03-28T13:51:06.591Z,36.90
2023-03-28T13:53:47.087Z,37.00
2023-03-28T13:56:23.274Z,37.10
2023-03-28T13:58:53.210Z,37.30
2023-03-28T14:01:24.280Z,37.20
2023-03-28T14:03:55.701Z,37.00
2023-03-28T14:06:26.510Z,36.90
2023-03-28T14:08:56.740Z,36.60
2023-03-28T14:11:30.352Z,36.40
2023-03-28T14:14:08.874Z,36.40
2023-03-28T14:16:38.990Z,36.20
2023-03-28T14:19:09.892Z,36.00
2023-03-28T14:21:38.718Z,36.10
2023-03-28T14:24:08.809Z,36.00
2023-03-28T14:26:37.910Z,35.50
2023-03-28T14:29:08.516Z,34.70
2023-03-28T14:31:39.949Z,34.10
2023-03-28T14:34:19.688Z,33.80
2023-03-28T14:37:02.296Z,33.40
2023-03-28T14:39:32.492Z,33.10
2023-03-28T14:42:04.030Z,33.50
2023-03-28T14:44:37.078Z,32.90
2023-03-28T14:47:06.445Z,33.00
2023-03-28T14:49:38.233Z,33.00
2023-03-28T14:52:12.413Z,33.00
2023-03-28T14:54:46.520Z,32.90
2023-03-28T14:57:18.117Z,32.90
2023-03-28T14:59:49.234Z,32.90
2023-03-28T15:02:25.045Z,32.80
2023-03-28T15:05:02.355Z,32.90
2023-03-28T15:07:34.466Z,32.80
2023-03-28T15:10:07.313Z,32.70
2023-03-28T15:12:42.045Z,32.80
2023-03-28T15:15:17.775Z,33.00
2023-03-28T15:17:47.255Z,33.00
2023-03-28T15:20:19.320Z,33.10
2023-03-28T15:22:50.882Z,33.10
2023-03-28T15:25:21.700Z,33.10
2023-03-28T15:27:56.574Z,33.40
2023-03-28T15:30:25.522Z,33.50
2023-03-28T15:33:00.968Z,33.70
2023-03-28T15:35:33.313Z,33.70
2023-03-28T15:38:03.087Z,33.80
2023-03-28T15:40:37.676Z,33.80
2023-03-28T15:43:08.096Z,33.90
2023-03-28T15:45:46.119Z,34.10
2023-03-28T15:48:19.714Z,33.90
2023-03-28T15:50:56.008Z,33.90
2023-03-28T15:53:29.490Z,33.80
2023-03-28T15:56:05.031Z,34.00
2023-03-28T15:58:33.660Z,34.00
2023-03-28T16:01:21.280Z,34.20
2023-03-28T16:03:50.566Z,34.30
2023-03-28T16:06:32.295Z,34.60
2023-03-28T16:09:16.678Z,34.70
2023-03-28T16:11:45.894Z,34.70
2023-03-28T16:14:17.181Z,34.90
2023-03-28T16:16:45.698Z,34.90
2023-03-28T16:19:20.377Z,34.90
2023-03-28T16:21:50.445Z,34.80
2023-03-28T16:24:19.719Z,35.10
2023-03-28T16:26:48.646Z,35.30
2023-03-28T16:29:16.860Z,35.30
2023-03-28T16:31:45.788Z,35.30
2023-03-28T16:34:14.082Z,35.40
2023-03-28T16:36:42.363Z,35.50
2023-03-28T16:39:12.719Z,35.60
2023-03-28T16:41:40.886Z,35.60
2023-03-28T16:44:09.209Z,36.10
2023-03-28T16:46:37.459Z,35.40
2023-03-28T16:49:05.784Z,35.50
2023-03-28T16:51:34.227Z,35.60
2023-03-28T16:54:02.436Z,35.60
2023-03-28T16:56:32.457Z,35.70
2023-03-28T16:59:00.595Z,35.70
2023-03-28T17:01:28.777Z,35.70
2023-03-28T17:03:57.191Z,35.80
2023-03-28T17:06:27.405Z,35.90
2023-03-28T17:08:56.111Z,36.00
2023-03-28T17:11:24.312Z,36.20
2023-03-28T17:13:55.437Z,36.30
2023-03-28T17:16:24.281Z,36.50
2023-03-28T17:18:53.644Z,36.60
2023-03-28T17:21:22.034Z,36.40
2023-03-28T17:23:51.775Z,36.20
2023-03-28T17:26:19.975Z,36.40
2023-03-28T17:28:48.229Z,36.50
2023-03-28T17:31:19.941Z,36.40
2023-03-28T17:33:48.877Z,36.30
2023-03-28T17:36:21.537Z,36.10
2023-03-28T17:38:50.802Z,36.20
2023-03-28T17:41:19.919Z,36.10
2023-03-28T17:43:48.067Z,36.10
2023-03-28T17:46:17.769Z,36.10
2023-03-28T17:48:46.592Z,36.10
2023-03-28T17:51:16.513Z,36.10
2023-03-28T17:53:47.637Z,36.20
2023-03-28T17:56:16.769Z,36.40
2023-03-28T17:58:45.567Z,36.30
2023-03-28T18:01:15.454Z,36.40
2023-03-28T18:03:45.866Z,36.50
2023-03-28T18:06:14.421Z,36.50
2023-03-28T18:08:44.593Z,36.60
2023-03-28T18:11:15.103Z,36.70
2023-03-28T18:13:43.838Z,36.80
2023-03-28T18:16:14.724Z,37.00
2023-03-28T18:18:44.794Z,37.00
2023-03-28T18:21:13.025Z,37.10
2023-03-28T18:23:42.463Z,37.20
2023-03-28T18:26:11.919Z,37.30
2023-03-28T18:28:40.379Z,37.40
2023-03-28T18:31:10.151Z,37.40
2023-03-28T18:33:38.635Z,37.30
2023-03-28T18:36:09.386Z,37.40
2023-03-28T18:38:38.253Z,37.30
2023-03-28T18:41:08.139Z,37.40
2023-03-28T18:43:37.248Z,37.60
2023-03-28T18:46:07.821Z,37.80
2023-03-28T18:48:36.841Z,38.00
2023-03-28T18:51:06.379Z,38.60
2023-03-28T18:53:37.663Z,39.20
2023-03-28T18:56:06.639Z,39.40
2023-03-28T18:58:37.056Z,39.60
2023-03-28T19:01:06.285Z,40.80
2023-03-28T19:03:39.921Z,41.10
2023-03-28T19:06:09.701Z,42.20
2023-03-28T19:08:40.362Z,44.50
2023-03-28T19:11:11.715Z,45.60
2023-03-28T19:13:40.415Z,46.30
2023-03-28T19:16:11.024Z,47.20
2023-03-28T19:18:40.465Z,48.00
2023-03-28T19:21:09.473Z,48.90
2023-03-28T19:23:39.404Z,49.90
2023-03-28T19:26:09.329Z,50.50
2023-03-28T19:28:39.040Z,51.30
2023-03-28T19:31:09.201Z,51.80
2023-03-28T19:33:38.494Z,52.50
2023-03-28T19:36:07.720Z,53.10
2023-03-28T19:38:38.264Z,53.50
2023-03-28T19:41:15.283Z,54.00
2023-03-28T19:43:44.386Z,54.80
2023-03-28T19:46:16.572Z,54.80
2023-03-28T19:48:44.886Z,55.30
2023-03-28T19:51:14.136Z,55.60
2023-03-28T19:53:42.736Z,56.00
2023-03-28T19:56:13.944Z,56.30
2023-03-28T19:58:42.434Z,56.60
2023-03-28T20:01:10.745Z,56.80
2023-03-28T20:03:38.965Z,57.00
2023-03-28T20:06:08.764Z,57.30
2023-03-28T20:08:36.989Z,57.50
2023-03-28T20:11:08.402Z,58.30
2023-03-28T20:13:38.005Z,58.10
2023-03-28T20:16:07.964Z,58.40
2023-03-28T20:18:37.116Z,58.60
2023-03-28T20:21:07.946Z,58.90
2023-03-28T20:23:36.253Z,59.10
2023-03-28T20:26:14.465Z,59.20
2023-03-28T20:28:49.826Z,59.60
2023-03-28T20:31:19.300Z,59.70
2023-03-28T20:33:47.694Z,59.80
2023-03-28T20:36:16.399Z,60.00
2023-03-28T20:38:44.836Z,60.20
2023-03-28T20:41:13.421Z,60.30
2023-03-28T20:43:47.648Z,60.60
2023-03-28T20:46:19.526Z,60.80
2023-03-28T20:48:51.941Z,61.10
2023-03-28T20:51:22.072Z,61.30
2023-03-28T20:53:51.987Z,61.40
2023-03-28T20:56:21.501Z,61.60
2023-03-28T20:58:52.989Z,61.90
2023-03-28T21:01:25.215Z,62.20
2023-03-28T21:03:54.651Z,62.30
2023-03-28T21:06:25.857Z,62.50
2023-03-28T21:08:55.562Z,62.60
2023-03-28T21:11:26.244Z,62.80
2023-03-28T21:13:57.073Z,62.90
2023-03-28T21:16:26.494Z,63.00
2023-03-28T21:18:54.768Z,63.00
2023-03-28T21:21:23.303Z,63.20
2023-03-28T21:23:53.100Z,63.30
2023-03-28T21:26:23.107Z,63.40
2023-03-28T21:28:52.395Z,63.50
2023-03-28T21:31:24.914Z,63.70
2023-03-28T21:33:55.447Z,63.80
2023-03-28T21:36:24.630Z,63.90
2023-03-28T21:38:53.130Z,64.10
2023-03-28T21:41:22.383Z,64.20
2023-03-28T21:43:51.923Z,64.20
2023-03-28T21:46:21.710Z,64.30
2023-03-28T21:48:50.115Z,64.20
2023-03-28T21:51:18.846Z,64.30
2023-03-28T21:53:47.241Z,64.50
2023-03-28T21:56:16.628Z,64.60
2023-03-28T21:58:44.940Z,64.60
2023-03-28T22:01:14.404Z,64.80
2023-03-28T22:03:45.557Z,64.80
2023-03-28T22:06:14.198Z,64.90
2023-03-28T22:08:42.884Z,64.90
2023-03-28T22:11:13.416Z,64.90
2023-03-28T22:13:42.231Z,64.90
2023-03-28T22:16:12.645Z,65.00
2023-03-28T22:18:41.445Z,65.00
2023-03-28T22:21:14.037Z,64.70
2023-03-28T22:23:42.887Z,64.70
2023-03-28T22:26:12.562Z,64.60
2023-03-28T22:28:40.981Z,64.40
2023-03-28T22:31:09.913Z,64.30
2023-03-28T22:33:38.173Z,64.00
2023-03-28T22:36:07.226Z,63.90
2023-03-28T22:38:37.470Z,63.80
2023-03-28T22:41:06.242Z,63.70
2023-03-28T22:43:34.676Z,63.70
2023-03-28T22:46:03.009Z,63.70
2023-03-28T22:48:31.467Z,63.70
2023-03-28T22:51:00.696Z,63.70
2023-03-28T22:53:29.709Z,63.70
2023-03-28T22:55:59.527Z,63.70
2023-03-28T22:58:28.304Z,63.70
2023-03-28T23:00:56.554Z,63.70
2023-03-28T23:03:24.823Z,63.80
2023-03-28T23:05:54.961Z,63.80
2023-03-28T23:08:23.306Z,63.70
2023-03-28T23:10:51.594Z,63.60
2023-03-28T23:13:21.243Z,63.60
2023-03-28T23:15:49.483Z,63.60
2023-03-28T23:18:17.699Z,63.60
2023-03-28T23:20:50.801Z,63.60
2023-03-28T23:23:19.362Z,63.60
2023-03-28T23:25:48.149Z,63.50
2023-03-28T23:28:18.948Z,63.60
2023-03-28T23:30:49.796Z,63.60
2023-03-28T23:33:18.849Z,63.50
2023-03-28T23:35:48.161Z,63.50
2023-03-28T23:38:17.559Z,63.70
2023-03-28T23:40:46.549Z,63.60
2023-03-28T23:43:14.826Z,63.60
2023-03-28T23:45:44.797Z,63.60
2023-03-28T23:48:14.759Z,63.40
2023-03-28T23:50:43.351Z,63.50
2023-03-28T23:53:11.753Z,63.50
2023-03-28T23:55:39.901Z,63.40
2023-03-28T23:58:08.089Z,63.60
